AFR1477 LEBB-LFPG
Flight info
| Callsign | AFR1477 |
|---|---|
| Flight time | N/A |
| Altitude | 30000 |
| Route | SSN L176 LUSEM DCT LULUT DCT POI DCT PEPAX UT182 KEPER |
| Aircraft | E190/M-SDE3GILORVW/S |
Departure
| Time | 2026-05-07 17:37 |
|---|---|
| Airport | Bilbao Airport (LEBB) |
Arrival
| Time | N/A |
|---|---|
| Airport | Charles de Gaulle International Airport (LFPG) |
| Time | Latitude | Longitude | Altitude | Speed | Heading |
|---|---|---|---|---|---|
| 2026-05-07 17:26 | 43.30480 | -2.90808 | 163 ft | 0 kts | 26° |
| 2026-05-07 17:29 | 43.30476 | -2.90811 | 162 ft | 2 kts | 26° |
| 2026-05-07 17:29 | 43.30463 | -2.90820 | 162 ft | 2 kts | 26° |
| 2026-05-07 17:30 | 43.30449 | -2.90829 | 161 ft | 2 kts | 26° |
| 2026-05-07 17:30 | 43.30436 | -2.90838 | 161 ft | 1 kts | 26° |
| 2026-05-07 17:30 | 43.30434 | -2.90839 | 161 ft | 0 kts | 26° |
| 2026-05-07 17:33 | 43.30447 | -2.90816 | 161 ft | 9 kts | 77° |
| 2026-05-07 17:33 | 43.30396 | -2.90704 | 160 ft | 17 kts | 129° |
| 2026-05-07 17:33 | 43.30300 | -2.90580 | 158 ft | 20 kts | 143° |
| 2026-05-07 17:34 | 43.30197 | -2.90542 | 154 ft | 15 kts | 211° |
| 2026-05-07 17:34 | 43.30109 | -2.90557 | 152 ft | 14 kts | 134° |
| 2026-05-07 17:34 | 43.30062 | -2.90422 | 151 ft | 15 kts | 121° |
| 2026-05-07 17:34 | 43.30006 | -2.90271 | 147 ft | 19 kts | 116° |
| 2026-05-07 17:35 | 43.29939 | -2.90083 | 142 ft | 24 kts | 116° |
| 2026-05-07 17:35 | 43.29858 | -2.89867 | 135 ft | 26 kts | 117° |
| 2026-05-07 17:35 | 43.29786 | -2.89663 | 129 ft | 17 kts | 116° |
| 2026-05-07 17:35 | 43.29696 | -2.89599 | 126 ft | 14 kts | 217° |
| 2026-05-07 17:36 | 43.29644 | -2.89714 | 128 ft | 13 kts | 271° |
| 2026-05-07 17:36 | 43.29662 | -2.89837 | 130 ft | 12 kts | 292° |
| 2026-05-07 17:36 | 43.29707 | -2.89974 | 134 ft | 22 kts | 295° |
| 2026-05-07 17:36 | 43.29890 | -2.90471 | 146 ft | 92 kts | 296° |
| 2026-05-07 17:37 | 43.30275 | -2.91523 | 149 ft | 150 kts | 295° |
| 2026-05-07 17:37 | 43.30763 | -2.92850 | 582 ft | 161 kts | 296° |
| 2026-05-07 17:37 | 43.31276 | -2.94242 | 1219 ft | 170 kts | 296° |
| 2026-05-07 17:37 | 43.31810 | -2.95700 | 1932 ft | 176 kts | 295° |
| 2026-05-07 17:38 | 43.32401 | -2.97201 | 2613 ft | 185 kts | 309° |
| 2026-05-07 17:38 | 43.33320 | -2.98455 | 3304 ft | 193 kts | 317° |
| 2026-05-07 17:38 | 43.34323 | -2.99737 | 3940 ft | 207 kts | 317° |
| 2026-05-07 17:38 | 43.35407 | -3.01120 | 4679 ft | 217 kts | 316° |
| 2026-05-07 17:39 | 43.36518 | -3.02536 | 5420 ft | 227 kts | 316° |
| 2026-05-07 17:39 | 43.37700 | -3.04040 | 6173 ft | 237 kts | 318° |
| 2026-05-07 17:39 | 43.39160 | -3.04979 | 6950 ft | 243 kts | 356° |
| 2026-05-07 17:39 | 43.40852 | -3.04503 | 7484 ft | 261 kts | 32° |
| 2026-05-07 17:40 | 43.42251 | -3.02856 | 8132 ft | 272 kts | 44° |
| 2026-05-07 17:40 | 43.43621 | -3.01114 | 9047 ft | 274 kts | 43° |
| 2026-05-07 17:40 | 43.45030 | -2.99378 | 10024 ft | 272 kts | 41° |
| 2026-05-07 17:40 | 43.46436 | -2.97669 | 10915 ft | 273 kts | 41° |
| 2026-05-07 17:41 | 43.47873 | -2.95936 | 11689 ft | 277 kts | 41° |
| 2026-05-07 17:41 | 43.49318 | -2.94198 | 12278 ft | 283 kts | 41° |
| 2026-05-07 17:41 | 43.50652 | -2.92225 | 12921 ft | 291 kts | 63° |
| 2026-05-07 17:41 | 43.51133 | -2.89522 | 13532 ft | 298 kts | 93° |
| 2026-05-07 17:42 | 43.50591 | -2.86691 | 13657 ft | 322 kts | 117° |
| 2026-05-07 17:42 | 43.49585 | -2.83834 | 14034 ft | 340 kts | 117° |
| 2026-05-07 17:42 | 43.48584 | -2.80862 | 14738 ft | 346 kts | 116° |
| 2026-05-07 17:42 | 43.47602 | -2.77884 | 15603 ft | 347 kts | 116° |
| 2026-05-07 17:43 | 43.46611 | -2.74864 | 16474 ft | 347 kts | 116° |
| 2026-05-07 17:43 | 43.45626 | -2.71852 | 17268 ft | 349 kts | 116° |
| 2026-05-07 17:43 | 43.44629 | -2.68807 | 18023 ft | 353 kts | 116° |
| 2026-05-07 17:43 | 43.43616 | -2.65714 | 18756 ft | 357 kts | 116° |
| 2026-05-07 17:44 | 43.42596 | -2.62602 | 19479 ft | 361 kts | 116° |
| 2026-05-07 17:44 | 43.41573 | -2.59488 | 20195 ft | 364 kts | 117° |
| 2026-05-07 17:44 | 43.40528 | -2.56305 | 20922 ft | 368 kts | 117° |
| 2026-05-07 17:44 | 43.39482 | -2.53102 | 21630 ft | 371 kts | 117° |
| 2026-05-07 17:45 | 43.38425 | -2.49892 | 22693 ft | 363 kts | 117° |
| 2026-05-07 17:45 | 43.37410 | -2.46829 | 23744 ft | 356 kts | 118° |
| 2026-05-07 17:45 | 43.36388 | -2.43740 | 24584 ft | 354 kts | 118° |
| 2026-05-07 17:45 | 43.35374 | -2.40675 | 25220 ft | 358 kts | 118° |
| 2026-05-07 17:46 | 43.34337 | -2.37544 | 25773 ft | 364 kts | 118° |
| 2026-05-07 17:46 | 43.33280 | -2.34355 | 26325 ft | 369 kts | 118° |
| 2026-05-07 17:46 | 43.32211 | -2.31131 | 26919 ft | 373 kts | 118° |
| 2026-05-07 17:46 | 43.31646 | -2.29393 | 27243 ft | 375 kts | 116° |
| 2026-05-07 17:47 | 43.30927 | -2.26155 | 27741 ft | 385 kts | 106° |
| 2026-05-07 17:47 | 43.30600 | -2.22402 | 27830 ft | 406 kts | 95° |
| 2026-05-07 17:47 | 43.30776 | -2.18445 | 28014 ft | 422 kts | 88° |
| 2026-05-07 17:47 | 43.30960 | -2.14424 | 28481 ft | 426 kts | 91° |
| 2026-05-07 17:48 | 43.31031 | -2.10358 | 29106 ft | 427 kts | 93° |
| 2026-05-07 17:48 | 43.31063 | -2.06345 | 29744 ft | 427 kts | 93° |
| 2026-05-07 17:48 | 43.31082 | -2.02262 | 29944 ft | 429 kts | 93° |
| 2026-05-07 17:48 | 43.31095 | -1.98107 | 29982 ft | 444 kts | 93° |
| 2026-05-07 17:49 | 43.31107 | -1.93850 | 29983 ft | 457 kts | 93° |
| 2026-05-07 17:49 | 43.31118 | -1.89490 | 29977 ft | 459 kts | 93° |